createdAt,value
2019-03-01T00:01:28.024Z,98338.00
2019-03-01T00:04:10.541Z,98329.00
2019-03-01T00:07:18.369Z,98337.00
2019-03-01T00:10:06.934Z,98323.00
2019-03-01T00:13:19.222Z,98318.00
2019-03-01T00:16:20.395Z,98313.00
2019-03-01T00:19:11.816Z,98319.00
2019-03-01T00:22:24.727Z,98321.00
2019-03-01T00:25:38.565Z,98310.00
2019-03-01T00:28:20.127Z,98313.00
2019-03-01T00:31:14.046Z,98316.00
2019-03-01T00:34:23.390Z,98330.00
2019-03-01T00:37:14.326Z,98323.00
2019-03-01T00:40:08.939Z,98320.00
2019-03-01T00:43:43.351Z,98314.00
2019-03-01T00:46:12.877Z,98317.00
2019-03-01T00:48:42.400Z,98291.00
2019-03-01T00:51:11.919Z,98285.00
2019-03-01T00:53:41.436Z,98288.00
2019-03-01T00:56:11.000Z,98289.00
2019-03-01T00:58:40.481Z,98273.00
2019-03-01T01:01:09.974Z,98274.00
2019-03-01T01:03:39.486Z,98272.00
2019-03-01T01:06:08.982Z,98264.00
2019-03-01T01:08:38.506Z,98260.00
2019-03-01T01:11:08.072Z,98262.00
2019-03-01T01:13:37.581Z,98258.00
2019-03-01T01:16:07.088Z,98265.00
2019-03-01T01:18:36.581Z,98244.00
2019-03-01T01:21:06.085Z,98250.00
2019-03-01T01:23:35.638Z,98247.00
2019-03-01T01:26:05.114Z,98236.00
2019-03-01T01:28:34.627Z,98238.00
2019-03-01T01:31:04.130Z,98229.00
2019-03-01T01:33:33.663Z,98233.00
2019-03-01T01:36:03.182Z,98232.00
2019-03-01T01:38:32.712Z,98227.00
2019-03-01T01:41:02.208Z,98231.00
2019-03-01T01:43:31.705Z,98223.00
2019-03-01T01:46:01.177Z,98218.00
2019-03-01T01:48:30.640Z,98221.00
2019-03-01T01:51:00.148Z,98215.00
2019-03-01T01:53:29.594Z,98210.00
2019-03-01T01:55:59.064Z,98211.00
2019-03-01T01:58:28.615Z,98205.00
2019-03-01T02:00:58.136Z,98198.00
2019-03-01T02:03:27.648Z,98197.00
2019-03-01T02:05:57.089Z,98193.00
2019-03-01T02:08:26.586Z,98197.00
2019-03-01T02:10:56.082Z,98193.00
2019-03-01T02:13:25.581Z,98189.00
2019-03-01T02:15:55.086Z,98187.00
2019-03-01T02:18:24.615Z,98178.00
2019-03-01T02:20:54.099Z,98174.00
2019-03-01T02:23:23.581Z,98174.00
2019-03-01T02:25:53.077Z,98166.00
2019-03-01T02:28:22.564Z,98174.00
2019-03-01T02:30:52.500Z,98166.00
2019-03-01T02:33:22.266Z,98162.00
2019-03-01T02:35:51.810Z,98166.00
2019-03-01T02:38:21.267Z,98159.00
2019-03-01T02:40:50.856Z,98160.00
2019-03-01T02:43:20.356Z,98162.00
2019-03-01T02:45:49.897Z,98154.00
2019-03-01T02:48:19.339Z,98155.00
2019-03-01T02:50:48.870Z,98149.00
2019-03-01T02:53:18.463Z,98149.00
2019-03-01T02:55:47.914Z,98150.00
2019-03-01T02:58:17.397Z,98143.00
2019-03-01T03:00:46.885Z,98144.00
2019-03-01T03:03:16.382Z,98151.00
2019-03-01T03:06:07.887Z,98155.00
2019-03-01T03:08:37.253Z,98139.00
2019-03-01T03:11:06.812Z,98144.00
2019-03-01T03:13:36.315Z,98146.00
2019-03-01T03:16:05.803Z,98137.00
2019-03-01T03:18:35.275Z,98131.00
2019-03-01T03:21:04.779Z,98132.00
2019-03-01T03:23:34.346Z,98134.00
2019-03-01T03:26:03.773Z,98137.00
2019-03-01T03:28:33.232Z,98134.00
2019-03-01T03:31:02.754Z,98132.00
2019-03-01T03:33:32.273Z,98128.00
2019-03-01T03:36:01.781Z,98120.00
2019-03-01T03:38:31.613Z,98124.00
2019-03-01T03:41:01.157Z,98126.00
2019-03-01T03:43:30.642Z,98123.00
2019-03-01T03:46:00.082Z,98116.00
2019-03-01T03:48:29.575Z,98116.00
2019-03-01T03:50:59.092Z,98121.00
2019-03-01T03:53:28.584Z,98114.00
2019-03-01T03:55:58.045Z,98113.00
2019-03-01T03:58:27.573Z,98108.00
2019-03-01T04:00:57.041Z,98112.00
2019-03-01T04:03:26.533Z,98098.00
2019-03-01T04:05:56.023Z,98103.00
2019-03-01T04:08:25.813Z,98092.00
2019-03-01T04:10:55.296Z,98092.00
2019-03-01T04:13:24.811Z,98098.00
2019-03-01T04:15:54.384Z,98085.00
2019-03-01T04:18:23.856Z,98081.00
2019-03-01T04:20:53.370Z,98092.00
2019-03-01T04:23:22.898Z,98087.00
2019-03-01T04:25:52.358Z,98074.00
2019-03-01T04:28:21.883Z,98078.00
2019-03-01T04:30:51.346Z,98087.00
2019-03-01T04:33:20.851Z,98073.00
2019-03-01T04:35:50.343Z,98071.00
2019-03-01T04:38:19.908Z,98073.00
2019-03-01T04:40:49.392Z,98076.00
2019-03-01T04:43:18.879Z,98068.00
2019-03-01T04:45:48.387Z,98068.00
2019-03-01T04:48:17.874Z,98071.00
2019-03-01T04:50:47.417Z,98073.00
2019-03-01T04:53:16.905Z,98074.00
2019-03-01T04:55:46.705Z,98071.00
2019-03-01T04:58:16.074Z,98074.00
2019-03-01T05:00:45.547Z,98076.00
2019-03-01T05:03:15.065Z,98064.00
2019-03-01T05:05:44.551Z,98047.00
2019-03-01T05:08:14.000Z,98063.00
2019-03-01T05:10:43.530Z,98073.00
2019-03-01T05:13:15.843Z,98061.00
2019-03-01T05:15:45.247Z,98067.00
2019-03-01T05:18:14.748Z,98065.00
2019-03-01T05:20:44.226Z,98060.00
2019-03-01T05:23:13.687Z,98051.00
2019-03-01T05:25:43.135Z,98052.00
2019-03-01T05:28:12.632Z,98046.00
2019-03-01T05:31:26.828Z,98054.00
2019-03-01T05:33:56.604Z,98047.00
2019-03-01T05:36:26.203Z,98046.00
2019-03-01T05:38:59.085Z,98051.00
2019-03-01T05:41:28.782Z,98056.00
2019-03-01T05:43:59.910Z,98053.00
2019-03-01T05:46:29.628Z,98045.00
2019-03-01T05:48:59.379Z,98042.00
2019-03-01T05:51:29.880Z,98048.00
2019-03-01T05:53:59.811Z,98047.00
2019-03-01T05:56:29.423Z,98041.00
2019-03-01T05:59:13.483Z,98044.00
2019-03-01T06:01:57.275Z,98044.00
2019-03-01T06:04:37.299Z,98052.00
2019-03-01T06:07:23.847Z,98045.00
2019-03-01T06:10:29.919Z,98049.00
2019-03-01T06:13:43.581Z,98045.00
2019-03-01T06:17:12.581Z,98047.00
2019-03-01T06:20:13.297Z,98046.00
2019-03-01T06:23:09.445Z,98046.00
2019-03-01T06:26:02.170Z,98053.00
2019-03-01T06:29:28.742Z,98050.00
2019-03-01T06:32:30.284Z,98052.00
2019-03-01T06:35:21.445Z,98052.00
2019-03-01T06:39:05.060Z,98051.00
2019-03-01T06:42:23.152Z,98048.00
2019-03-01T06:45:39.107Z,98056.00
2019-03-01T06:48:10.673Z,98044.00
2019-03-01T06:50:44.219Z,98054.00
2019-03-01T06:53:14.195Z,98053.00
2019-03-01T06:55:52.222Z,98051.00
2019-03-01T06:58:36.091Z,98054.00
2019-03-01T07:01:30.921Z,98053.00
2019-03-01T07:04:08.971Z,98053.00
2019-03-01T07:06:39.265Z,98051.00
2019-03-01T07:09:09.052Z,98059.00
2019-03-01T07:11:38.750Z,98052.00
2019-03-01T07:14:08.505Z,98051.00
2019-03-01T07:16:38.202Z,98053.00
2019-03-01T07:19:08.127Z,98059.00
2019-03-01T07:21:38.061Z,98055.00
2019-03-01T07:24:08.196Z,98049.00
2019-03-01T07:26:38.072Z,98057.00
2019-03-01T07:29:07.783Z,98048.00
2019-03-01T07:31:37.524Z,98051.00
2019-03-01T07:34:07.316Z,98054.00
2019-03-01T07:36:38.934Z,98055.00
2019-03-01T07:39:10.468Z,98062.00
2019-03-01T07:41:40.248Z,98041.00
2019-03-01T07:44:10.117Z,98049.00
2019-03-01T07:46:39.959Z,98056.00
2019-03-01T07:49:09.664Z,98044.00
2019-03-01T07:51:42.906Z,98043.00
2019-03-01T07:54:13.305Z,98046.00
2019-03-01T07:56:44.448Z,98040.00
2019-03-01T07:59:14.139Z,98055.00
2019-03-01T08:01:43.941Z,98052.00
2019-03-01T08:04:13.581Z,98053.00
2019-03-01T08:06:45.513Z,98054.00
2019-03-01T08:09:14.912Z,98059.00
2019-03-01T08:11:44.942Z,98056.00
2019-03-01T08:14:14.797Z,98050.00
2019-03-01T08:16:44.566Z,98059.00
2019-03-01T08:19:16.996Z,98069.00
2019-03-01T08:21:48.738Z,98060.00
2019-03-01T08:24:17.129Z,98054.00
2019-03-01T08:26:46.804Z,98058.00
2019-03-01T08:29:16.826Z,98061.00
2019-03-01T08:31:46.566Z,98064.00
2019-03-01T08:34:17.837Z,98061.00
2019-03-01T08:36:47.580Z,98052.00
2019-03-01T08:39:17.233Z,98057.00
2019-03-01T08:41:47.036Z,98048.00
2019-03-01T08:44:19.457Z,98066.00
2019-03-01T08:46:48.090Z,98053.00
2019-03-01T08:49:17.808Z,98059.00
2019-03-01T08:51:47.680Z,98055.00
2019-03-01T08:54:17.417Z,98049.00
2019-03-01T08:56:50.237Z,98054.00
2019-03-01T08:59:18.729Z,98053.00
2019-03-01T09:01:49.376Z,98059.00
2019-03-01T09:04:21.463Z,98048.00
2019-03-01T09:06:50.696Z,98048.00
2019-03-01T09:09:20.921Z,98058.00
2019-03-01T09:11:51.838Z,98052.00
2019-03-01T09:14:22.767Z,98051.00
2019-03-01T09:16:53.239Z,98054.00
2019-03-01T09:19:25.270Z,98050.00
2019-03-01T09:21:54.265Z,98058.00
2019-03-01T09:24:25.641Z,98052.00
2019-03-01T09:26:56.070Z,98061.00
2019-03-01T09:29:26.108Z,98055.00
2019-03-01T09:31:57.791Z,98059.00
2019-03-01T09:34:28.609Z,98061.00
2019-03-01T09:36:59.456Z,98051.00
2019-03-01T09:39:29.209Z,98048.00
2019-03-01T09:42:03.555Z,98047.00
2019-03-01T09:44:34.607Z,98044.00
2019-03-01T09:47:05.414Z,98035.00
2019-03-01T09:49:35.269Z,98039.00
2019-03-01T09:52:07.857Z,98036.00
2019-03-01T09:54:37.535Z,98039.00
2019-03-01T09:57:08.644Z,98036.00
2019-03-01T09:59:38.262Z,98042.00
2019-03-01T10:02:08.172Z,98060.00
2019-03-01T10:04:38.139Z,98045.00
2019-03-01T10:07:07.596Z,98053.00
2019-03-01T10:09:37.341Z,98047.00
2019-03-01T10:12:07.038Z,98046.00
2019-03-01T10:14:36.733Z,98050.00
2019-03-01T10:17:06.554Z,98050.00
2019-03-01T10:19:36.375Z,98052.00
2019-03-01T10:22:06.841Z,98055.00
2019-03-01T10:24:36.677Z,98050.00
2019-03-01T10:27:06.228Z,98046.00
2019-03-01T10:29:35.913Z,98045.00
2019-03-01T10:32:05.766Z,98054.00
2019-03-01T10:34:35.439Z,98061.00
2019-03-01T10:37:05.333Z,98047.00
2019-03-01T10:39:35.059Z,98059.00
2019-03-01T10:42:04.895Z,98052.00
2019-03-01T10:44:34.590Z,98054.00
2019-03-01T10:47:04.509Z,98042.00
2019-03-01T10:49:34.319Z,98049.00
2019-03-01T10:52:04.235Z,98052.00
2019-03-01T10:54:34.434Z,98046.00
2019-03-01T10:57:04.372Z,98049.00
2019-03-01T10:59:34.192Z,98065.00
2019-03-01T11:02:04.133Z,98051.00
2019-03-01T11:04:33.921Z,98065.00
2019-03-01T11:07:03.616Z,98068.00
2019-03-01T11:09:33.340Z,98057.00
2019-03-01T11:12:03.047Z,98064.00
2019-03-01T11:14:33.046Z,98066.00
2019-03-01T11:17:02.886Z,98055.00
2019-03-01T11:19:32.705Z,98058.00
2019-03-01T11:22:03.785Z,98045.00
2019-03-01T11:24:33.675Z,98052.00
2019-03-01T11:27:12.656Z,98056.00
2019-03-01T11:29:35.359Z,98064.00
2019-03-01T11:32:05.408Z,98064.00
2019-03-01T11:34:36.278Z,98073.00
2019-03-01T11:37:06.123Z,98066.00
2019-03-01T11:39:35.978Z,98062.00
2019-03-01T11:42:05.675Z,98057.00
2019-03-01T11:44:35.542Z,98050.00
2019-03-01T11:47:05.305Z,98050.00
2019-03-01T11:49:35.080Z,98053.00
2019-03-01T11:52:04.885Z,98044.00
2019-03-01T11:54:34.808Z,98036.00
2019-03-01T11:57:04.805Z,98041.00
2019-03-01T11:59:34.762Z,98040.00
2019-03-01T12:02:04.545Z,98038.00
2019-03-01T12:04:34.482Z,98040.00
2019-03-01T12:07:04.060Z,98042.00
2019-03-01T12:09:34.398Z,98041.00
2019-03-01T12:12:05.738Z,98040.00
2019-03-01T12:14:35.458Z,98045.00
2019-03-01T12:17:05.805Z,98040.00
2019-03-01T12:19:35.790Z,98046.00
2019-03-01T12:22:05.523Z,98039.00
2019-03-01T12:24:35.121Z,98051.00
2019-03-01T12:27:05.140Z,98049.00
2019-03-01T12:29:34.975Z,98054.00
2019-03-01T12:32:04.551Z,98047.00
2019-03-01T12:34:34.664Z,98051.00
2019-03-01T12:37:04.667Z,98051.00
2019-03-01T12:39:34.391Z,98067.00
2019-03-01T12:42:04.412Z,98061.00
2019-03-01T12:44:34.353Z,98062.00
2019-03-01T12:49:47.357Z,98069.00
2019-03-01T12:52:29.039Z,98070.00
2019-03-01T12:55:09.832Z,98086.00
2019-03-01T12:57:51.506Z,98075.00
2019-03-01T13:07:00.437Z,98108.00
2019-03-01T13:09:41.428Z,98112.00
2019-03-01T13:12:25.863Z,98085.00
2019-03-01T13:15:05.720Z,98103.00
2019-03-01T13:17:46.833Z,98096.00
2019-03-01T13:20:29.912Z,98063.00
2019-03-01T13:23:10.941Z,98046.00
2019-03-01T13:25:52.629Z,98063.00
2019-03-01T13:28:34.321Z,98065.00
2019-03-01T13:31:15.928Z,97992.00
2019-03-01T13:33:57.735Z,98075.00
2019-03-01T13:36:39.495Z,98072.00
2019-03-01T13:39:21.264Z,98116.00
2019-03-01T13:45:22.389Z,98074.00
2019-03-01T13:48:03.782Z,98076.00
2019-03-01T13:50:44.633Z,98076.00
2019-03-01T13:53:25.410Z,98096.00
2019-03-01T13:56:06.784Z,98096.00
2019-03-01T13:58:48.275Z,98090.00
2019-03-01T14:01:29.081Z,98097.00
2019-03-01T14:04:10.199Z,98095.00
2019-03-01T14:06:51.749Z,98105.00
2019-03-01T14:09:34.413Z,98104.00
2019-03-01T14:12:15.588Z,98110.00
2019-03-01T14:14:59.305Z,98075.00
2019-03-01T14:17:39.771Z,98105.00
2019-03-01T14:20:21.521Z,98099.00
2019-03-01T14:23:02.948Z,98105.00
2019-03-01T14:25:44.503Z,98120.00
2019-03-01T14:28:26.174Z,98111.00
2019-03-01T14:31:08.321Z,98114.00
2019-03-01T14:33:51.649Z,98110.00
2019-03-01T14:36:32.515Z,98111.00
2019-03-01T14:39:13.635Z,98107.00
2019-03-01T14:41:54.753Z,98108.00
2019-03-01T14:44:36.397Z,98115.00
2019-03-01T14:47:17.764Z,98107.00
2019-03-01T14:49:59.453Z,98196.00
2019-03-01T14:52:40.624Z,98127.00
2019-03-01T14:55:23.205Z,98120.00
2019-03-01T14:58:04.266Z,98122.00
2019-03-01T15:04:04.893Z,98151.00
2019-03-01T15:06:46.552Z,98145.00
2019-03-01T15:09:28.014Z,98117.00
2019-03-01T15:12:09.521Z,98115.00
2019-03-01T15:14:51.276Z,98135.00
2019-03-01T15:17:33.571Z,98131.00
2019-03-01T15:20:17.266Z,98121.00
2019-03-01T15:22:57.435Z,98161.00
2019-03-01T15:25:38.260Z,98126.00
2019-03-01T15:28:19.589Z,98141.00
2019-03-01T15:31:00.970Z,98126.00
2019-03-01T15:33:46.636Z,98159.00
2019-03-01T15:36:25.056Z,98132.00
2019-03-01T15:39:08.379Z,98141.00
2019-03-01T15:41:49.694Z,98143.00
2019-03-01T15:44:31.144Z,98141.00
2019-03-01T15:47:12.600Z,98151.00
2019-03-01T15:49:53.378Z,98156.00
2019-03-01T15:52:34.737Z,98069.00
2019-03-01T15:55:15.664Z,98106.00
2019-03-01T15:57:57.356Z,98159.00
2019-03-01T16:00:40.600Z,98164.00
2019-03-01T16:03:25.031Z,98171.00
2019-03-01T16:06:10.258Z,98181.00
2019-03-01T16:08:49.575Z,98181.00
2019-03-01T16:11:31.048Z,98229.00
2019-03-01T16:14:11.842Z,98196.00
2019-03-01T16:16:53.456Z,98206.00
2019-03-01T16:19:36.110Z,98190.00
2019-03-01T16:22:18.887Z,98192.00
2019-03-01T16:25:00.466Z,98151.00
2019-03-01T16:27:41.989Z,98182.00
2019-03-01T16:30:23.337Z,98188.00
2019-03-01T16:33:05.024Z,98208.00
2019-03-01T16:35:51.788Z,98218.00
2019-03-01T16:38:40.719Z,98188.00
2019-03-01T16:41:15.698Z,98227.00
2019-03-01T16:43:57.136Z,98184.00
2019-03-01T16:46:39.060Z,98189.00
2019-03-01T16:49:23.577Z,98182.00
2019-03-01T16:52:02.929Z,98194.00
2019-03-01T16:54:47.572Z,98114.00
2019-03-01T16:57:27.862Z,98217.00
2019-03-01T17:00:09.058Z,98193.00
2019-03-01T17:02:50.356Z,98201.00
2019-03-01T17:05:31.947Z,98214.00
2019-03-01T17:08:13.477Z,98207.00
2019-03-01T17:10:54.839Z,98225.00
2019-03-01T17:13:35.929Z,98257.00
2019-03-01T17:16:20.423Z,98134.00
2019-03-01T17:19:00.636Z,98220.00
2019-03-01T17:21:42.266Z,98261.00
2019-03-01T17:24:23.863Z,98200.00
2019-03-01T17:27:06.639Z,98243.00
2019-03-01T17:29:47.859Z,98243.00
2019-03-01T17:32:29.668Z,98158.00
2019-03-01T17:35:10.645Z,98250.00
2019-03-01T17:37:52.178Z,98259.00
2019-03-01T17:40:35.740Z,98302.00
2019-03-01T17:43:16.300Z,98313.00
2019-03-01T17:48:40.614Z,98283.00
2019-03-01T17:51:22.349Z,98288.00
2019-03-01T17:54:03.735Z,98292.00
2019-03-01T18:05:49.521Z,98293.00
2019-03-01T18:08:31.005Z,98309.00
2019-03-01T18:11:12.624Z,98329.00
2019-03-01T18:13:53.489Z,98303.00
2019-03-01T18:16:34.685Z,98289.00
2019-03-01T18:19:16.174Z,98298.00
2019-03-01T18:21:57.607Z,98308.00
2019-03-01T18:24:39.221Z,98328.00
2019-03-01T18:27:20.932Z,98324.00
2019-03-01T18:30:02.152Z,98309.00
2019-03-01T18:32:45.263Z,98341.00
2019-03-01T18:35:26.212Z,98318.00
2019-03-01T18:38:07.781Z,98317.00
2019-03-01T18:40:51.789Z,98330.00
2019-03-01T18:43:32.454Z,98339.00
2019-03-01T18:46:14.552Z,98336.00
2019-03-01T18:48:56.691Z,98352.00
2019-03-01T18:51:42.279Z,98366.00
2019-03-01T18:54:21.168Z,98370.00
2019-03-01T18:57:03.627Z,98356.00
2019-03-01T18:59:46.522Z,98360.00
2019-03-01T19:05:09.091Z,98358.00
2019-03-01T19:14:35.581Z,98374.00
2019-03-01T19:23:47.834Z,98387.00
2019-03-01T19:30:05.118Z,98392.00
2019-03-01T19:33:12.587Z,98392.00
2019-03-01T19:50:45.122Z,98375.00
2019-03-01T19:56:19.019Z,98411.00
2019-03-01T20:01:52.603Z,98440.00
2019-03-01T20:04:33.506Z,98337.00
2019-03-01T20:16:12.687Z,98424.00
2019-03-01T20:21:41.401Z,98425.00
2019-03-01T20:29:57.181Z,98436.00
2019-03-01T20:38:14.160Z,98472.00
2019-03-01T20:40:59.787Z,98539.00
2019-03-01T20:46:30.178Z,98422.00
2019-03-01T21:01:02.081Z,98462.00
2019-03-01T21:06:37.384Z,98431.00
2019-03-01T21:12:02.881Z,98466.00
2019-03-01T21:17:33.414Z,98472.00
2019-03-01T21:25:50.143Z,98492.00
2019-03-01T21:28:36.597Z,98512.00
2019-03-01T21:31:19.290Z,98478.00
2019-03-01T21:42:38.022Z,98453.00
2019-03-01T21:45:21.469Z,98489.00
2019-03-01T21:48:02.572Z,98522.00
2019-03-01T21:59:19.206Z,98500.00
2019-03-01T22:02:00.308Z,98522.00
2019-03-01T22:07:26.227Z,98492.00
2019-03-01T22:15:53.010Z,98514.00
2019-03-01T22:18:36.939Z,98503.00
2019-03-01T22:21:22.649Z,98542.00
2019-03-01T22:24:00.724Z,98538.00
2019-03-01T22:26:42.116Z,98547.00
2019-03-01T22:29:23.506Z,98607.00
2019-03-01T22:32:07.335Z,98501.00
2019-03-01T22:37:43.839Z,98519.00
2019-03-01T22:40:27.969Z,98514.00
2019-03-01T22:43:08.635Z,98549.00
2019-03-01T22:45:49.718Z,98517.00
2019-03-01T22:48:31.575Z,98447.00
2019-03-01T22:51:14.480Z,98512.00
2019-03-01T22:53:58.956Z,98549.00
2019-03-01T22:56:40.314Z,98514.00
2019-03-01T22:59:21.808Z,98433.00
2019-03-01T23:02:08.171Z,98508.00
2019-03-01T23:04:48.035Z,98514.00
2019-03-01T23:07:29.396Z,98509.00
2019-03-01T23:10:10.530Z,98544.00
2019-03-01T23:12:51.332Z,98510.00
2019-03-01T23:15:32.854Z,98537.00
2019-03-01T23:18:14.438Z,98511.00
2019-03-01T23:20:57.599Z,98410.00
2019-03-01T23:23:38.538Z,98505.00
2019-03-01T23:26:21.599Z,98452.00
2019-03-01T23:29:02.554Z,98507.00
2019-03-01T23:31:43.988Z,98515.00
2019-03-01T23:34:25.492Z,98540.00
2019-03-01T23:37:06.653Z,98550.00
2019-03-01T23:39:48.205Z,98542.00
2019-03-01T23:42:29.550Z,98514.00
2019-03-01T23:45:13.729Z,98549.00
2019-03-01T23:47:53.537Z,98510.00
2019-03-01T23:50:35.713Z,98529.00
2019-03-01T23:55:59.558Z,98550.00
2019-03-01T23:58:41.122Z,98450.00
